Terminal Aerodrome Forecast
Issued by NWS Sioux Falls, SD

Home | Current Version | Previous Version | Text Only | Print | Product List | Glossary Off
Versions: 1 2 3 4 5 6 7 8 9 10 11 12 13 14 15 16 17 18

000
FTUS43 KFSD 201029 AAA
TAFFSD
TAF AMD
KFSD 201029Z 2010/2106 16012KT P6SM VCTS SCT070CB BKN120
     FM201200 17013G20KT P6SM SCT120
     FM210100 17012KT P6SM SKC=

USA.gov is the U.S. government's official web portal to all federal, state and local government web resources and services.